Time;durP1;ratioP1;P1;durP2;ratioP2;P2;SDS_P1;SDS_P2;PMS_P1;PMS_P2;Temp;Humidity;BMP_temperature;BMP_pressure;BME280_temperature;BME280_humidity;BME280_pressure;Samples;Min_cycle;Max_cycle;Signal;HPM_P1;HPM_P2
2023/03/31 00:01:06;;;;;;;;;;;8.00;99.90;;;;;;5066808;28;19925;-63
2023/03/31 00:03:42;;;;;;;;;;;8.00;99.90;;;;;;5051820;28;19924;-63
2023/03/31 00:06:18;;;;;;;;;;;8.00;99.90;;;;;;5069640;28;20384;-63
2023/03/31 00:08:50;;;;;;;;;;;8.00;99.90;;;;;;5052009;28;20343;-63
2023/03/31 00:11:17;;;;;;;;;;;7.90;99.90;;;;;;5061467;28;19950;-63
2023/03/31 00:13:48;;;;;;;;;;;7.90;99.90;;;;;;5068387;28;19924;-63
2023/03/31 00:16:20;;;;;;;;;;;7.80;99.90;;;;;;5054068;28;19951;-63
2023/03/31 00:18:51;;;;;;;;;;;7.80;99.90;;;;;;5068237;28;19974;-63
2023/03/31 00:21:23;;;;;;;;;;;7.80;99.90;;;;;;5054006;28;19928;-63
2023/03/31 00:23:56;;;;;;;;;;;7.90;99.90;;;;;;5056212;28;19969;-63
2023/03/31 00:26:28;;;;;;;;;;;7.90;99.90;;;;;;5053285;28;19921;-63
2023/03/31 00:29:00;;;;;;;;;;;8.00;99.90;;;;;;5058049;28;20408;-63
2023/03/31 00:31:31;;;;;;;;;;;8.00;99.90;;;;;;5076868;28;19928;-64
2023/03/31 00:34:04;;;;;;;;;;;8.10;99.90;;;;;;5072794;28;19927;-63
2023/03/31 00:36:46;;;;;;;;;;;8.00;99.90;;;;;;5053183;28;19925;-62
2023/03/31 00:39:18;;;;;;;;;;;8.00;99.90;;;;;;5053132;28;19925;-63
2023/03/31 00:41:49;;;;;;;;;;;8.00;99.90;;;;;;5050247;28;19928;-63
2023/03/31 00:44:23;;;;;;;;;;;8.00;99.90;;;;;;5054188;28;20037;-63
2023/03/31 00:47:18;;;;;;;;;;;8.00;99.90;;;;;;5055700;28;20007;-63
2023/03/31 00:49:53;;;;;;;;;;;8.00;99.90;;;;;;5067310;28;19927;-63
2023/03/31 00:52:36;;;;;;;;;;;8.10;99.90;;;;;;5064831;28;20308;-63
2023/03/31 00:55:09;;;;;;;;;;;8.00;99.90;;;;;;5045746;28;20300;-63
2023/03/31 00:57:43;;;;;;;;;;;8.00;99.90;;;;;;5038013;28;19924;-63
2023/03/31 01:00:14;;;;;;;;;;;8.00;99.90;;;;;;5058750;28;19928;-63
2023/03/31 01:02:54;;;;;;;;;;;8.00;99.90;;;;;;5066481;28;19920;-63
2023/03/31 01:05:29;;;;;;;;;;;8.00;99.90;;;;;;5054593;28;20200;-63
2023/03/31 01:08:01;;;;;;;;;;;8.00;99.90;;;;;;5065074;28;19924;-63
2023/03/31 01:10:40;;;;;;;;;;;8.00;99.90;;;;;;5064290;28;19928;-63
2023/03/31 01:13:14;;;;;;;;;;;8.00;99.90;;;;;;5066034;28;20384;-63
2023/03/31 01:15:41;;;;;;;;;;;8.00;99.90;;;;;;5049865;28;19927;-63
2023/03/31 01:18:13;;;;;;;;;;;8.10;99.90;;;;;;5053712;28;19920;-63
2023/03/31 01:20:48;;;;;;;;;;;8.10;99.90;;;;;;5053850;28;19940;-63
2023/03/31 01:23:38;;;;;;;;;;;8.20;99.90;;;;;;5067776;28;19924;-63
2023/03/31 01:26:32;;;;;;;;;;;8.20;99.90;;;;;;5067446;28;19920;-63
2023/03/31 01:29:07;;;;;;;;;;;8.30;99.90;;;;;;5065886;28;20281;-63
2023/03/31 01:31:43;;;;;;;;;;;8.20;99.90;;;;;;5063785;28;19961;-63
2023/03/31 01:34:34;;;;;;;;;;;8.20;99.90;;;;;;5063883;28;20557;-63
2023/03/31 01:37:10;;;;;;;;;;;8.20;99.90;;;;;;5035228;28;19921;-63
2023/03/31 01:39:49;;;;;;;;;;;8.20;99.90;;;;;;5052224;28;19921;-63
2023/03/31 01:42:33;;;;;;;;;;;8.30;99.90;;;;;;5068288;28;19970;-63
2023/03/31 01:45:15;;;;;;;;;;;8.40;99.90;;;;;;5055440;28;20385;-63
2023/03/31 01:47:53;;;;;;;;;;;8.50;99.90;;;;;;5050252;28;19928;-63
2023/03/31 01:50:29;;;;;;;;;;;8.60;99.90;;;;;;5067763;28;19924;-63
2023/03/31 01:53:05;;;;;;;;;;;8.60;99.90;;;;;;5053034;28;19947;-63
2023/03/31 01:55:39;;;;;;;;;;;8.70;99.90;;;;;;5050629;28;19927;-63
2023/03/31 01:58:09;;;;;;;;;;;8.80;99.90;;;;;;5067753;28;20019;-63
2023/03/31 02:00:44;;;;;;;;;;;8.80;99.90;;;;;;5036525;28;19925;-63
2023/03/31 02:03:20;;;;;;;;;;;8.90;99.90;;;;;;5059275;28;19950;-63
2023/03/31 02:05:54;;;;;;;;;;;9.00;99.90;;;;;;5059495;28;19920;-63
2023/03/31 02:08:28;;;;;;;;;;;9.10;99.90;;;;;;5070929;28;19920;-63
2023/03/31 02:10:58;;;;;;;;;;;9.10;99.90;;;;;;5059617;28;19943;-63
2023/03/31 02:13:33;;;;;;;;;;;9.10;99.90;;;;;;5054430;28;19924;-63
2023/03/31 02:16:07;;;;;;;;;;;9.00;99.90;;;;;;5051487;28;20388;-63
2023/03/31 02:18:40;;;;;;;;;;;9.00;99.90;;;;;;5064712;28;19925;-63
2023/03/31 02:21:13;;;;;;;;;;;9.10;99.90;;;;;;5055275;28;19920;-63
2023/03/31 02:23:46;;;;;;;;;;;9.20;99.90;;;;;;5054079;28;19954;-63
2023/03/31 02:26:20;;;;;;;;;;;9.20;99.90;;;;;;5051818;28;19986;-63
2023/03/31 02:28:52;;;;;;;;;;;9.40;99.90;;;;;;5049639;28;19927;-63
2023/03/31 02:31:33;;;;;;;;;;;9.60;99.90;;;;;;5068047;28;19985;-63
2023/03/31 02:34:05;;;;;;;;;;;9.70;99.90;;;;;;5065973;28;19924;-64
2023/03/31 02:36:39;;;;;;;;;;;9.70;99.90;;;;;;5051456;28;19921;-63
2023/03/31 02:39:22;;;;;;;;;;;9.80;99.90;;;;;;5063742;28;20335;-63
2023/03/31 02:41:51;;;;;;;;;;;9.70;99.90;;;;;;5045882;28;20006;-63
2023/03/31 02:44:19;;;;;;;;;;;9.60;99.90;;;;;;5067011;28;19960;-63
2023/03/31 02:46:46;;;;;;;;;;;9.50;99.90;;;;;;5051617;28;19927;-63
2023/03/31 02:49:14;;;;;;;;;;;9.40;99.90;;;;;;5069017;28;19983;-64
2023/03/31 02:52:01;;;;;;;;;;;9.40;99.90;;;;;;5051568;28;19927;-63
2023/03/31 02:54:45;;;;;;;;;;;9.30;99.90;;;;;;5054101;28;19929;-64
2023/03/31 02:57:17;;;;;;;;;;;9.20;99.90;;;;;;5064212;28;19920;-64
2023/03/31 03:00:07;;;;;;;;;;;9.10;99.90;;;;;;5031674;28;19928;-63
2023/03/31 03:02:49;;;;;;;;;;;9.10;99.90;;;;;;5054034;28;19924;-63
2023/03/31 03:05:24;;;;;;;;;;;9.00;99.90;;;;;;5063312;28;19925;-63
2023/03/31 03:08:42;;;;;;;;;;;8.90;99.90;;;;;;5047919;28;20363;-64
2023/03/31 03:11:17;;;;;;;;;;;8.90;99.90;;;;;;5050477;28;19928;-63
2023/03/31 03:13:59;;;;;;;;;;;8.90;99.90;;;;;;5058205;28;19921;-64
2023/03/31 03:16:32;;;;;;;;;;;8.90;99.90;;;;;;5049754;28;19924;-64
2023/03/31 03:19:05;;;;;;;;;;;8.80;99.90;;;;;;5068449;28;19950;-66
2023/03/31 03:21:36;;;;;;;;;;;8.70;99.90;;;;;;5051116;28;19960;-64
2023/03/31 03:24:04;;;;;;;;;;;8.70;99.90;;;;;;5066605;28;19931;-64
2023/03/31 03:26:36;;;;;;;;;;;8.60;99.90;;;;;;5068181;28;19974;-63
2023/03/31 03:29:07;;;;;;;;;;;8.60;99.90;;;;;;5068240;28;19920;-64
2023/03/31 03:31:40;;;;;;;;;;;8.60;99.90;;;;;;5068714;28;20339;-64
2023/03/31 03:34:12;;;;;;;;;;;8.60;99.90;;;;;;5069357;28;19924;-64
2023/03/31 03:36:43;;;;;;;;;;;8.50;99.90;;;;;;5069721;28;19920;-64
2023/03/31 03:39:15;;;;;;;;;;;8.50;99.90;;;;;;5054631;28;19924;-64
2023/03/31 03:41:42;;;;;;;;;;;8.50;99.90;;;;;;5067870;28;20398;-64
2023/03/31 03:44:14;;;;;;;;;;;8.50;99.90;;;;;;5057526;28;19927;-64
2023/03/31 03:46:40;;;;;;;;;;;8.50;99.90;;;;;;5070165;28;19927;-64
2023/03/31 03:49:12;;;;;;;;;;;8.50;99.90;;;;;;5070485;28;19932;-64
2023/03/31 03:51:39;;;;;;;;;;;8.40;99.90;;;;;;5053753;28;19924;-64
2023/03/31 03:54:11;;;;;;;;;;;8.40;99.90;;;;;;5070971;28;19927;-64
2023/03/31 03:56:37;;;;;;;;;;;8.30;99.90;;;;;;5072316;28;19924;-64
2023/03/31 03:59:10;;;;;;;;;;;8.30;99.90;;;;;;5073685;28;19974;-64
2023/03/31 04:01:37;;;;;;;;;;;8.30;99.90;;;;;;5072159;28;19928;-64
2023/03/31 04:04:09;;;;;;;;;;;8.30;99.90;;;;;;5067976;28;19921;-64
2023/03/31 04:06:41;;;;;;;;;;;8.30;99.90;;;;;;5071920;28;20017;-63
2023/03/31 04:09:07;;;;;;;;;;;8.30;99.90;;;;;;5066589;28;20396;-64
2023/03/31 04:11:39;;;;;;;;;;;8.30;99.90;;;;;;5055527;28;19933;-63
2023/03/31 04:14:11;;;;;;;;;;;8.30;99.90;;;;;;5068895;28;19920;-63
2023/03/31 04:16:45;;;;;;;;;;;8.30;99.90;;;;;;5061250;28;19979;-64
2023/03/31 04:19:17;;;;;;;;;;;8.30;99.90;;;;;;5068810;28;19924;-64
2023/03/31 04:21:49;;;;;;;;;;;8.30;99.90;;;;;;5070949;28;20363;-64
2023/03/31 04:24:20;;;;;;;;;;;8.30;99.90;;;;;;5072408;28;19975;-64
2023/03/31 04:26:52;;;;;;;;;;;8.30;99.90;;;;;;5059247;28;20675;-64
2023/03/31 04:29:25;;;;;;;;;;;8.30;99.90;;;;;;5069751;28;20432;-65
2023/03/31 04:31:53;;;;;;;;;;;8.30;99.90;;;;;;5072097;28;19928;-64
2023/03/31 04:34:21;;;;;;;;;;;8.30;99.90;;;;;;5066909;28;19924;-64
2023/03/31 04:36:54;;;;;;;;;;;8.30;99.90;;;;;;5066160;28;20411;-64
2023/03/31 04:39:25;;;;;;;;;;;8.30;99.90;;;;;;5068626;28;19927;-64
2023/03/31 04:41:58;;;;;;;;;;;8.20;99.90;;;;;;5053232;28;19920;-64
2023/03/31 04:44:29;;;;;;;;;;;8.20;99.90;;;;;;5052076;28;19929;-64
2023/03/31 04:47:01;;;;;;;;;;;8.30;99.90;;;;;;5054163;28;19973;-64
2023/03/31 04:49:34;;;;;;;;;;;8.30;99.90;;;;;;5066581;28;19928;-64
2023/03/31 04:52:06;;;;;;;;;;;8.30;99.90;;;;;;5055217;28;19925;-64
2023/03/31 04:54:38;;;;;;;;;;;8.30;99.90;;;;;;5066808;28;19928;-64
2023/03/31 04:57:04;;;;;;;;;;;8.30;99.90;;;;;;5064353;28;19920;-64
2023/03/31 04:59:31;;;;;;;;;;;8.30;99.90;;;;;;5061726;28;19924;-64
2023/03/31 05:02:02;;;;;;;;;;;8.30;99.90;;;;;;5066879;28;19920;-64
2023/03/31 05:04:29;;;;;;;;;;;8.30;99.90;;;;;;5066594;28;19928;-64
2023/03/31 05:06:56;;;;;;;;;;;8.30;99.90;;;;;;5052072;28;19920;-64
2023/03/31 05:09:27;;;;;;;;;;;8.30;99.90;;;;;;5070457;28;19963;-64
2023/03/31 05:11:55;;;;;;;;;;;8.30;99.90;;;;;;5070693;28;19925;-64
2023/03/31 05:14:27;;;;;;;;;;;8.30;99.90;;;;;;5069023;28;19921;-64
2023/03/31 05:16:58;;;;;;;;;;;8.40;99.90;;;;;;5052211;28;19927;-64
2023/03/31 05:19:30;;;;;;;;;;;8.40;99.90;;;;;;5052423;28;19975;-64
2023/03/31 05:22:02;;;;;;;;;;;8.40;99.90;;;;;;5067903;28;19956;-64
2023/03/31 05:24:34;;;;;;;;;;;8.40;99.90;;;;;;5068085;28;20565;-64
2023/03/31 05:27:01;;;;;;;;;;;8.40;99.90;;;;;;5070088;28;19974;-64
2023/03/31 05:29:33;;;;;;;;;;;8.50;99.90;;;;;;5037355;28;20449;-64
2023/03/31 05:32:05;;;;;;;;;;;8.50;99.90;;;;;;5049463;28;19927;-64
2023/03/31 05:34:37;;;;;;;;;;;8.50;99.90;;;;;;5069317;28;19920;-64
2023/03/31 05:37:04;;;;;;;;;;;8.50;99.90;;;;;;5069154;28;19921;-64
2023/03/31 05:39:36;;;;;;;;;;;8.50;99.90;;;;;;5067077;28;19924;-64
2023/03/31 05:42:04;;;;;;;;;;;8.50;99.90;;;;;;5068111;28;19928;-64
2023/03/31 05:44:36;;;;;;;;;;;8.50;99.90;;;;;;5052508;28;19942;-64
2023/03/31 05:47:03;;;;;;;;;;;8.60;99.90;;;;;;5067689;28;19924;-64
2023/03/31 05:49:35;;;;;;;;;;;8.60;99.90;;;;;;5067327;28;19920;-64
2023/03/31 05:52:07;;;;;;;;;;;8.60;99.90;;;;;;5054709;28;19924;-64
2023/03/31 05:54:34;;;;;;;;;;;8.60;99.90;;;;;;5069010;28;19925;-64
2023/03/31 05:57:01;;;;;;;;;;;8.50;99.90;;;;;;5069719;28;19931;-64
2023/03/31 05:59:28;;;;;;;;;;;8.50;99.90;;;;;;5068407;28;19931;-64
2023/03/31 06:02:00;;;;;;;;;;;8.60;99.90;;;;;;5063530;28;19920;-64
2023/03/31 06:04:31;;;;;;;;;;;8.60;99.90;;;;;;5051362;28;19920;-64
2023/03/31 06:07:04;;;;;;;;;;;8.50;99.90;;;;;;5049868;28;19920;-64
2023/03/31 06:09:36;;;;;;;;;;;8.50;99.90;;;;;;5066779;28;19920;-64
2023/03/31 06:12:07;;;;;;;;;;;8.50;99.90;;;;;;5068182;28;19978;-64
2023/03/31 06:14:39;;;;;;;;;;;8.50;99.90;;;;;;5068890;28;19991;-64
2023/03/31 06:17:10;;;;;;;;;;;8.50;99.90;;;;;;5052350;28;19925;-64
2023/03/31 06:19:37;;;;;;;;;;;8.50;99.90;;;;;;5069258;28;20388;-63
2023/03/31 06:22:08;;;;;;;;;;;8.50;99.90;;;;;;5066604;28;19921;-64
2023/03/31 06:24:40;;;;;;;;;;;8.50;99.90;;;;;;5065986;28;20463;-64
2023/03/31 06:27:12;;;;;;;;;;;8.50;99.90;;;;;;5066586;28;19978;-64
2023/03/31 06:29:44;;;;;;;;;;;8.50;99.90;;;;;;5065133;28;19920;-64
2023/03/31 06:32:15;;;;;;;;;;;8.60;99.90;;;;;;5051192;28;19975;-64
2023/03/31 06:34:47;;;;;;;;;;;8.60;99.90;;;;;;5052130;28;19920;-64
2023/03/31 06:37:19;;;;;;;;;;;8.50;99.90;;;;;;5066759;28;19947;-64
2023/03/31 06:39:50;;;;;;;;;;;8.50;99.90;;;;;;5061137;28;19955;-64
2023/03/31 06:42:17;;;;;;;;;;;8.50;99.90;;;;;;5070144;28;19924;-64
2023/03/31 06:44:49;;;;;;;;;;;8.50;99.90;;;;;;5062573;28;19927;-64
2023/03/31 06:47:21;;;;;;;;;;;8.50;99.90;;;;;;5062435;28;19925;-64
2023/03/31 06:49:53;;;;;;;;;;;8.50;99.90;;;;;;5065144;28;19924;-64
2023/03/31 06:52:25;;;;;;;;;;;8.60;99.90;;;;;;5067214;28;19924;-64
2023/03/31 06:54:51;;;;;;;;;;;8.50;99.90;;;;;;5044997;28;19927;-64
2023/03/31 06:57:23;;;;;;;;;;;8.50;99.90;;;;;;5067503;28;19921;-64
2023/03/31 06:59:54;;;;;;;;;;;8.50;99.90;;;;;;5067461;28;19966;-64
2023/03/31 07:02:26;;;;;;;;;;;8.50;99.90;;;;;;5051916;28;20399;-64
2023/03/31 07:04:53;;;;;;;;;;;8.50;99.90;;;;;;5067340;28;19974;-64
2023/03/31 07:07:24;;;;;;;;;;;8.50;99.90;;;;;;5065704;28;19977;-64
2023/03/31 07:09:56;;;;;;;;;;;8.50;99.90;;;;;;5065041;28;19928;-64
2023/03/31 07:12:28;;;;;;;;;;;8.50;99.90;;;;;;5060388;28;19924;-64
2023/03/31 07:14:55;;;;;;;;;;;8.60;99.90;;;;;;5049726;28;19920;-64
2023/03/31 07:17:26;;;;;;;;;;;8.60;99.90;;;;;;5065453;28;19961;-64
2023/03/31 07:19:53;;;;;;;;;;;8.60;99.90;;;;;;5048148;28;19924;-64
2023/03/31 07:22:25;;;;;;;;;;;8.60;99.90;;;;;;5067492;28;19927;-64
2023/03/31 07:24:56;;;;;;;;;;;8.70;99.90;;;;;;5071986;28;20296;-64
2023/03/31 07:27:28;;;;;;;;;;;8.70;99.90;;;;;;5071984;28;19928;-64
2023/03/31 07:29:54;;;;;;;;;;;8.80;99.90;;;;;;5063213;28;19970;-65
2023/03/31 07:32:26;;;;;;;;;;;8.80;99.90;;;;;;5067357;28;20290;-65
2023/03/31 07:34:58;;;;;;;;;;;8.90;99.90;;;;;;5051404;28;19920;-64
2023/03/31 07:37:25;;;;;;;;;;;9.00;99.90;;;;;;5073444;28;19928;-64
2023/03/31 07:39:56;;;;;;;;;;;9.10;99.90;;;;;;5070129;28;19924;-64
2023/03/31 07:42:28;;;;;;;;;;;9.10;99.90;;;;;;5066975;28;19924;-64
2023/03/31 07:45:00;;;;;;;;;;;9.10;99.90;;;;;;5071235;28;19935;-64
2023/03/31 07:47:27;;;;;;;;;;;9.10;99.90;;;;;;5067060;28;19921;-64
2023/03/31 07:49:59;;;;;;;;;;;9.20;99.90;;;;;;5072728;28;19924;-64
2023/03/31 07:52:30;;;;;;;;;;;9.30;99.90;;;;;;5070652;28;20412;-65
2023/03/31 07:55:02;;;;;;;;;;;9.40;99.90;;;;;;5055125;28;19932;-64
2023/03/31 07:57:35;;;;;;;;;;;9.50;99.90;;;;;;5052321;28;20354;-64
2023/03/31 08:00:09;;;;;;;;;;;9.60;99.90;;;;;;5067935;28;19950;-64
2023/03/31 08:02:43;;;;;;;;;;;9.80;99.90;;;;;;5065108;28;20426;-64
2023/03/31 08:05:16;;;;;;;;;;;9.70;99.90;;;;;;5071935;28;19928;-64
2023/03/31 08:07:44;;;;;;;;;;;9.70;99.90;;;;;;5073294;28;19924;-65
2023/03/31 08:10:18;;;;;;;;;;;9.70;99.90;;;;;;5063078;28;20376;-64
2023/03/31 08:12:50;;;;;;;;;;;9.70;99.90;;;;;;5057473;28;19923;-64
2023/03/31 08:15:22;;;;;;;;;;;9.80;99.90;;;;;;5073381;28;19943;-64
2023/03/31 08:17:54;;;;;;;;;;;10.00;99.90;;;;;;5051336;28;20423;-64
2023/03/31 08:20:25;;;;;;;;;;;10.00;99.90;;;;;;5056198;28;20781;-63
2023/03/31 08:22:57;;;;;;;;;;;10.00;99.90;;;;;;5064819;28;19943;-64
2023/03/31 08:25:28;;;;;;;;;;;10.00;99.90;;;;;;5054353;28;19974;-64
2023/03/31 08:28:00;;;;;;;;;;;9.90;99.90;;;;;;5053151;28;19965;-64
2023/03/31 08:30:32;;;;;;;;;;;9.90;99.90;;;;;;5049257;28;19920;-64
2023/03/31 08:33:06;;;;;;;;;;;10.00;99.90;;;;;;5050583;28;20011;-63
2023/03/31 08:35:38;;;;;;;;;;;10.00;99.90;;;;;;5070556;28;19974;-64
2023/03/31 08:38:09;;;;;;;;;;;10.00;99.90;;;;;;5053215;28;19920;-64
2023/03/31 08:40:41;;;;;;;;;;;10.00;99.90;;;;;;5073268;28;19920;-64
2023/03/31 08:43:11;;;;;;;;;;;10.00;99.90;;;;;;5050088;28;19931;-64
2023/03/31 08:45:40;;;;;;;;;;;10.00;99.90;;;;;;5071073;28;19924;-64
2023/03/31 08:48:24;;;;;;;;;;;10.20;99.90;;;;;;5066256;28;19925;-64
2023/03/31 08:51:00;;;;;;;;;;;10.30;99.90;;;;;;5050863;28;20368;-64
2023/03/31 08:53:45;;;;;;;;;;;10.50;99.90;;;;;;5068223;28;19927;-64
2023/03/31 08:56:16;;;;;;;;;;;10.60;99.90;;;;;;5060727;28;19924;-64
2023/03/31 08:58:49;;;;;;;;;;;10.70;99.90;;;;;;5050691;28;20416;-64
2023/03/31 09:01:33;;;;;;;;;;;10.90;99.90;;;;;;5067595;28;19924;-64
2023/03/31 09:04:00;;;;;;;;;;;11.10;99.90;;;;;;5065545;28;20456;-64
2023/03/31 09:06:37;;;;;;;;;;;11.20;99.90;;;;;;5055200;28;19928;-64
2023/03/31 09:09:07;;;;;;;;;;;11.10;99.90;;;;;;5068133;28;19920;-64
2023/03/31 09:11:58;;;;;;;;;;;11.10;99.90;;;;;;5065500;28;20363;-64
2023/03/31 09:14:35;;;;;;;;;;;11.10;99.90;;;;;;5034450;28;20289;-63
2023/03/31 09:17:16;;;;;;;;;;;11.00;99.90;;;;;;5035847;28;20388;-64
2023/03/31 09:19:57;;;;;;;;;;;11.00;99.90;;;;;;5050272;28;19924;-64
2023/03/31 09:22:31;;;;;;;;;;;11.10;99.90;;;;;;5069793;28;19928;-64
2023/03/31 09:25:03;;;;;;;;;;;11.30;99.90;;;;;;5070141;28;19924;-64
2023/03/31 09:27:38;;;;;;;;;;;11.50;99.90;;;;;;5054376;28;19955;-63
2023/03/31 09:30:14;;;;;;;;;;;11.70;99.90;;;;;;5065718;28;19967;-64
2023/03/31 09:32:51;;;;;;;;;;;11.90;99.90;;;;;;5067725;28;19924;-64
2023/03/31 09:35:24;;;;;;;;;;;12.00;99.90;;;;;;5066919;28;19935;-64
2023/03/31 09:37:56;;;;;;;;;;;12.10;99.90;;;;;;5065358;28;19921;-64
2023/03/31 09:40:28;;;;;;;;;;;12.30;99.90;;;;;;5062637;28;19924;-64
2023/03/31 09:43:01;;;;;;;;;;;12.40;99.90;;;;;;5068170;28;19924;-64
2023/03/31 09:45:32;;;;;;;;;;;12.60;99.90;;;;;;5067016;28;19924;-64
2023/03/31 09:48:11;;;;;;;;;;;12.70;99.90;;;;;;5070530;28;19924;-64
2023/03/31 09:50:51;;;;;;;;;;;12.70;99.90;;;;;;5056744;28;19973;-63
2023/03/31 09:53:38;;;;;;;;;;;12.60;99.90;;;;;;5067331;28;19920;-64
2023/03/31 09:56:10;;;;;;;;;;;12.60;99.90;;;;;;5063066;28;20340;-64
2023/03/31 09:58:43;;;;;;;;;;;12.70;99.90;;;;;;5050833;28;19920;-64
2023/03/31 10:01:11;;;;;;;;;;;12.80;99.90;;;;;;5065201;28;19974;-64
2023/03/31 10:03:48;;;;;;;;;;;12.80;99.90;;;;;;5068568;28;19920;-64
2023/03/31 10:06:16;;;;;;;;;;;12.90;99.90;;;;;;5066010;28;19920;-64
2023/03/31 10:08:52;;;;;;;;;;;13.10;99.90;;;;;;5069877;28;19928;-64
2023/03/31 10:11:26;;;;;;;;;;;13.10;99.90;;;;;;5069236;28;20035;-64
2023/03/31 10:14:02;;;;;;;;;;;13.20;99.90;;;;;;5067089;28;19924;-64
2023/03/31 10:16:33;;;;;;;;;;;13.10;99.90;;;;;;5067427;28;19920;-64
2023/03/31 10:19:19;;;;;;;;;;;13.20;99.90;;;;;;5064572;28;20381;-64
2023/03/31 10:21:56;;;;;;;;;;;13.40;99.90;;;;;;5051638;28;19921;-64
2023/03/31 10:24:36;;;;;;;;;;;13.60;99.90;;;;;;5065724;28;19920;-64
2023/03/31 10:27:23;;;;;;;;;;;13.70;99.90;;;;;;5051365;28;19927;-64
2023/03/31 10:29:56;;;;;;;;;;;13.70;99.90;;;;;;5068877;28;19943;-64
2023/03/31 10:32:29;;;;;;;;;;;13.80;99.90;;;;;;5068972;28;19928;-64
2023/03/31 10:35:25;;;;;;;;;;;13.90;99.90;;;;;;5053344;28;19925;-63
2023/03/31 10:37:54;;;;;;;;;;;14.20;99.90;;;;;;5055282;28;19920;-63
2023/03/31 10:40:26;;;;;;;;;;;14.40;99.90;;;;;;5046791;28;19924;-64
2023/03/31 10:43:02;;;;;;;;;;;14.50;99.90;;;;;;5051379;28;20385;-64
2023/03/31 10:45:42;;;;;;;;;;;14.50;99.90;;;;;;5063654;28;19971;-63
2023/03/31 10:48:22;;;;;;;;;;;14.20;99.90;;;;;;5068224;28;19924;-64
2023/03/31 10:51:00;;;;;;;;;;;14.00;99.90;;;;;;5068190;28;19920;-64
2023/03/31 10:53:42;;;;;;;;;;;13.80;99.90;;;;;;5066830;28;19925;-64
2023/03/31 10:56:36;;;;;;;;;;;13.70;99.90;;;;;;5049025;28;19924;-67
2023/03/31 10:59:17;;;;;;;;;;;13.60;99.90;;;;;;5050382;28;19921;-64
2023/03/31 11:01:53;;;;;;;;;;;13.60;99.90;;;;;;5067479;28;19920;-63
2023/03/31 11:04:27;;;;;;;;;;;13.60;99.90;;;;;;5062065;28;19924;-64
2023/03/31 11:07:02;;;;;;;;;;;13.70;99.90;;;;;;5066625;28;20385;-63
2023/03/31 11:09:40;;;;;;;;;;;13.70;99.90;;;;;;5050546;28;19920;-64
2023/03/31 11:12:23;;;;;;;;;;;13.70;99.90;;;;;;5066106;28;19931;-64
2023/03/31 11:15:04;;;;;;;;;;;13.70;99.90;;;;;;5051900;28;19924;-64
2023/03/31 11:17:45;;;;;;;;;;;13.70;99.90;;;;;;5065791;28;19927;-63
2023/03/31 11:20:25;;;;;;;;;;;13.80;99.90;;;;;;5066176;28;19920;-64
2023/03/31 11:23:13;;;;;;;;;;;13.80;99.90;;;;;;5037616;28;20293;-64
2023/03/31 11:25:46;;;;;;;;;;;13.90;99.90;;;;;;5065605;28;19948;-63
2023/03/31 11:28:24;;;;;;;;;;;14.00;99.90;;;;;;5053484;28;19924;-63
2023/03/31 11:31:27;;;;;;;;;;;14.10;99.90;;;;;;5061659;28;19925;-64
2023/03/31 11:34:04;;;;;;;;;;;14.20;99.90;;;;;;5039514;28;19921;-63
2023/03/31 11:36:48;;;;;;;;;;;14.40;99.90;;;;;;5054022;28;20365;-64
2023/03/31 11:39:50;;;;;;;;;;;14.50;99.90;;;;;;5066718;28;19920;-64
2023/03/31 11:42:43;;;;;;;;;;;14.70;99.90;;;;;;5008232;28;19932;-63
2023/03/31 11:45:17;;;;;;;;;;;14.80;99.90;;;;;;5049425;28;19920;-64
2023/03/31 11:47:51;;;;;;;;;;;14.70;99.90;;;;;;5066271;28;19928;-64
2023/03/31 11:50:20;;;;;;;;;;;14.60;99.90;;;;;;5049209;28;20396;-64
2023/03/31 11:52:57;;;;;;;;;;;14.70;99.90;;;;;;5064852;28;20416;-63
2023/03/31 11:55:31;;;;;;;;;;;14.50;99.90;;;;;;5061768;28;19932;-65
2023/03/31 11:58:04;;;;;;;;;;;14.60;99.90;;;;;;5049804;28;19924;-63
2023/03/31 12:00:37;;;;;;;;;;;14.60;99.90;;;;;;5070064;28;19929;-63
2023/03/31 12:03:13;;;;;;;;;;;14.60;99.90;;;;;;5055976;28;20019;-64
2023/03/31 12:06:11;;;;;;;;;;;15.00;99.90;;;;;;5068377;28;19920;-63
2023/03/31 12:08:43;;;;;;;;;;;15.20;99.90;;;;;;5051071;28;19931;-63
2023/03/31 12:11:23;;;;;;;;;;;15.20;99.90;;;;;;5053378;28;19927;-63
2023/03/31 12:14:11;;;;;;;;;;;15.10;99.90;;;;;;5056046;28;20522;-63
2023/03/31 12:16:45;;;;;;;;;;;15.00;99.90;;;;;;5067931;28;19970;-64
2023/03/31 12:19:17;;;;;;;;;;;14.90;99.90;;;;;;5068177;28;20030;-63
2023/03/31 12:21:51;;;;;;;;;;;14.70;99.90;;;;;;5058322;28;19927;-63
2023/03/31 12:24:25;;;;;;;;;;;14.50;99.90;;;;;;5071943;28;19924;-63
2023/03/31 12:27:15;;;;;;;;;;;14.20;99.90;;;;;;5059317;28;19920;-63
2023/03/31 12:29:45;;;;;;;;;;;14.00;99.90;;;;;;5071814;28;20015;-63
2023/03/31 12:32:19;;;;;;;;;;;13.80;99.90;;;;;;5069187;28;20296;-64
2023/03/31 12:34:58;;;;;;;;;;;13.70;99.90;;;;;;5066544;28;19927;-63
2023/03/31 12:37:48;;;;;;;;;;;13.50;99.90;;;;;;5070237;28;19920;-63
2023/03/31 12:40:23;;;;;;;;;;;13.40;99.90;;;;;;5069868;28;19925;-63
2023/03/31 12:43:04;;;;;;;;;;;13.30;99.90;;;;;;5069268;28;19941;-63
2023/03/31 12:45:42;;;;;;;;;;;13.20;99.90;;;;;;5071262;28;19927;-63
2023/03/31 12:48:20;;;;;;;;;;;13.20;99.90;;;;;;5052513;28;19920;-63
2023/03/31 12:50:57;;;;;;;;;;;13.20;99.90;;;;;;5057375;28;19929;-63
2023/03/31 12:53:38;;;;;;;;;;;13.20;99.90;;;;;;5055567;28;19927;-63
2023/03/31 12:56:05;;;;;;;;;;;12.80;99.90;;;;;;5070461;28;19928;-63
2023/03/31 12:58:38;;;;;;;;;;;12.40;99.90;;;;;;5070268;28;19920;-63
2023/03/31 13:01:10;;;;;;;;;;;12.10;99.90;;;;;;5065042;28;19924;-63
2023/03/31 13:03:45;;;;;;;;;;;12.00;99.90;;;;;;5066801;28;20316;-63
2023/03/31 13:06:26;;;;;;;;;;;11.90;99.90;;;;;;5070048;28;19921;-63
2023/03/31 13:09:04;;;;;;;;;;;11.80;99.90;;;;;;5052748;28;20374;-63
2023/03/31 13:11:39;;;;;;;;;;;11.80;99.90;;;;;;5073100;28;19927;-63
2023/03/31 13:14:09;;;;;;;;;;;11.80;99.90;;;;;;5072057;28;20304;-63
2023/03/31 13:16:41;;;;;;;;;;;12.00;99.90;;;;;;5067119;28;19921;-63
2023/03/31 13:19:28;;;;;;;;;;;12.20;99.90;;;;;;5067654;28;19928;-63
2023/03/31 13:22:00;;;;;;;;;;;12.40;99.90;;;;;;5066756;28;19947;-63
2023/03/31 13:24:33;;;;;;;;;;;12.70;99.90;;;;;;5068325;28;19927;-63
2023/03/31 13:27:18;;;;;;;;;;;12.80;99.90;;;;;;5051910;28;19924;-63
2023/03/31 13:29:45;;;;;;;;;;;13.00;99.90;;;;;;5051210;28;19923;-66
2023/03/31 13:32:20;;;;;;;;;;;13.20;99.90;;;;;;5051472;28;19921;-63
2023/03/31 13:34:58;;;;;;;;;;;13.30;99.90;;;;;;5066193;28;19959;-63
2023/03/31 13:37:30;;;;;;;;;;;13.50;99.90;;;;;;5068405;28;19994;-63
2023/03/31 13:40:20;;;;;;;;;;;13.60;99.90;;;;;;5067189;28;21329;-63
2023/03/31 13:43:05;;;;;;;;;;;13.50;99.90;;;;;;5064980;28;19920;-63
2023/03/31 13:45:46;;;;;;;;;;;13.50;99.90;;;;;;5069577;28;19920;-63
2023/03/31 13:48:23;;;;;;;;;;;13.40;99.90;;;;;;5065959;28;20305;-63
2023/03/31 13:51:12;;;;;;;;;;;13.40;99.90;;;;;;5050897;28;19931;-63
2023/03/31 13:53:53;;;;;;;;;;;13.30;99.90;;;;;;5068927;28;19974;-63
2023/03/31 13:56:43;;;;;;;;;;;13.40;99.90;;;;;;5067672;28;19925;-63
2023/03/31 13:59:21;;;;;;;;;;;13.20;99.90;;;;;;5053250;28;19924;-63
2023/03/31 14:02:03;;;;;;;;;;;13.10;99.90;;;;;;5069263;28;19920;-63
2023/03/31 14:04:50;;;;;;;;;;;13.00;99.90;;;;;;5068421;28;19974;-63
2023/03/31 14:07:29;;;;;;;;;;;13.00;99.90;;;;;;5052305;28;19978;-63
2023/03/31 14:10:01;;;;;;;;;;;12.90;99.90;;;;;;5066536;28;19924;-63
2023/03/31 14:12:35;;;;;;;;;;;12.80;99.90;;;;;;5067835;28;19983;-63
2023/03/31 14:15:16;;;;;;;;;;;12.60;99.90;;;;;;5066200;28;19928;-63
2023/03/31 14:17:43;;;;;;;;;;;12.50;99.90;;;;;;5052846;28;19931;-63
2023/03/31 14:20:23;;;;;;;;;;;12.50;99.90;;;;;;5064238;28;19929;-63
2023/03/31 14:23:08;;;;;;;;;;;12.40;99.90;;;;;;5070849;28;19931;-63
2023/03/31 14:25:53;;;;;;;;;;;12.40;99.90;;;;;;5063508;28;19924;-64
2023/03/31 14:28:34;;;;;;;;;;;12.10;99.90;;;;;;5066602;28;19921;-63
2023/03/31 14:31:09;;;;;;;;;;;11.60;99.90;;;;;;5065502;28;19920;-64
2023/03/31 14:33:36;;;;;;;;;;;11.50;99.90;;;;;;5066803;28;19925;-64
2023/03/31 14:36:12;;;;;;;;;;;11.40;99.90;;;;;;5067381;28;19921;-64
2023/03/31 14:38:39;;;;;;;;;;;11.40;99.90;;;;;;5067551;28;19920;-64
2023/03/31 14:41:16;;;;;;;;;;;11.70;99.90;;;;;;5069256;28;20404;-64
2023/03/31 14:43:49;;;;;;;;;;;12.20;99.90;;;;;;5055083;28;19924;-64
2023/03/31 14:46:21;;;;;;;;;;;12.60;99.90;;;;;;5070799;28;19924;-64
2023/03/31 14:48:53;;;;;;;;;;;12.90;99.90;;;;;;5053103;28;20361;-63
2023/03/31 14:51:29;;;;;;;;;;;13.00;99.90;;;;;;5065074;28;20169;-64
2023/03/31 14:54:01;;;;;;;;;;;12.70;99.90;;;;;;5063130;28;19928;-64
2023/03/31 14:56:32;;;;;;;;;;;12.40;99.90;;;;;;5068749;28;19924;-63
2023/03/31 14:59:06;;;;;;;;;;;12.20;99.90;;;;;;5065966;28;19927;-64
2023/03/31 15:01:38;;;;;;;;;;;12.20;99.90;;;;;;5066958;28;19924;-63
2023/03/31 15:04:11;;;;;;;;;;;12.00;99.90;;;;;;5072449;28;19927;-63
2023/03/31 15:06:45;;;;;;;;;;;12.10;99.90;;;;;;5068532;28;19952;-63